Time;durP1;ratioP1;P1;durP2;ratioP2;P2;SDS_P1;SDS_P2;PMS_P1;PMS_P2;Temp;Humidity;BMP_temperature;BMP_pressure;BME280_temperature;BME280_humidity;BME280_pressure;Samples;Min_cycle;Max_cycle;Signal;HPM_P1;HPM_P2
2022/07/13 00:04:21;;;;;;;4.53;2.42;;;;;22.40;101586.00;;;;10428695;28;20189;-77
2022/07/13 00:09:23;;;;;;;5.75;2.50;;;;;22.30;101587.00;;;;10443869;28;20208;-77
2022/07/13 00:14:25;;;;;;;3.90;2.92;;;;;22.20;101586.00;;;;10461166;28;20202;-77
2022/07/13 00:19:27;;;;;;;2.60;2.40;;;;;22.20;101577.00;;;;10460312;28;20193;-77
2022/07/13 00:24:29;;;;;;;3.30;2.80;;;;;22.20;101577.00;;;;10403535;28;20285;-77
2022/07/13 00:29:31;;;;;;;3.13;2.33;;;;;22.20;101579.00;;;;10429000;28;20182;-77
2022/07/13 00:34:33;;;;;;;3.25;2.22;;;;;22.30;101573.00;;;;10465887;28;20568;-77
2022/07/13 00:39:35;;;;;;;7.80;2.88;;;;;22.30;101561.00;;;;10452854;28;20189;-77
2022/07/13 00:44:37;;;;;;;7.07;2.63;;;;;22.40;101559.00;;;;10469024;28;20181;-77
2022/07/13 00:49:39;;;;;;;3.33;2.97;;;;;22.40;101552.00;;;;10468000;28;20186;-77
2022/07/13 00:54:43;;;;;;;4.38;2.47;;;;;22.50;101550.00;;;;10468617;28;20624;-77
2022/07/13 00:59:46;;;;;;;4.45;2.38;;;;;22.60;101547.00;;;;10467569;28;20217;-77
2022/07/13 01:04:48;;;;;;;6.68;3.05;;;;;22.70;101546.00;;;;10452242;28;20190;-77
2022/07/13 01:09:50;;;;;;;3.80;2.58;;;;;22.70;101539.00;;;;10484027;28;20189;-77
2022/07/13 01:14:52;;;;;;;3.67;2.20;;;;;22.80;101548.00;;;;10444257;28;20206;-77
2022/07/13 01:19:55;;;;;;;5.60;2.60;;;;;22.80;101540.00;;;;10438897;28;20198;-77
2022/07/13 01:24:58;;;;;;;3.60;2.75;;;;;22.80;101543.00;;;;10445036;28;20278;-77
2022/07/13 01:30:00;;;;;;;4.43;2.53;;;;;22.80;101544.00;;;;10478862;28;20197;-77
2022/07/13 01:35:01;;;;;;;2.30;2.10;;;;;22.80;101538.00;;;;10482667;28;20209;-77
2022/07/13 01:40:04;;;;;;;4.25;2.15;;;;;22.80;101536.00;;;;10433071;28;20193;-77
2022/07/13 01:45:08;;;;;;;3.60;2.13;;;;;22.80;101533.00;;;;10464777;28;20189;-77
2022/07/13 01:50:12;;;;;;;4.57;2.35;;;;;22.80;101528.00;;;;10501009;28;20197;-77
2022/07/13 01:55:14;;;;;;;2.42;2.17;;;;;22.80;101516.00;;;;10449254;28;20357;-77
2022/07/13 02:00:20;;;;;;;3.20;1.88;;;;;22.80;101522.00;;;;10466113;28;20243;-77
2022/07/13 02:05:25;;;;;;;6.50;2.20;;;;;22.80;101527.00;;;;10439910;28;20185;-78
2022/07/13 02:10:36;;;;;;;4.00;1.88;;;;;22.80;101517.00;;;;10448891;28;20221;-77
2022/07/13 02:15:42;;;;;;;3.50;2.30;;;;;22.80;101516.00;;;;10442915;28;20209;-77
2022/07/13 02:20:44;;;;;;;2.42;2.00;;;;;22.80;101512.00;;;;10436211;28;20212;-77
2022/07/13 02:25:46;;;;;;;1.80;1.70;;;;;22.80;101511.00;;;;10465068;28;20189;-77
2022/07/13 02:30:48;;;;;;;2.10;1.70;;;;;22.80;101503.00;;;;10464867;28;20247;-77
2022/07/13 02:35:50;;;;;;;2.10;1.83;;;;;22.80;101509.00;;;;10448202;28;20216;-77
2022/07/13 02:40:52;;;;;;;2.70;2.35;;;;;22.80;101510.00;;;;10431758;28;20205;-77
2022/07/13 02:45:54;;;;;;;2.75;2.00;;;;;22.80;101513.00;;;;10464380;28;20190;-76
2022/07/13 02:50:56;;;;;;;5.15;1.83;;;;;22.80;101507.00;;;;10463631;28;20193;-77
2022/07/13 02:55:58;;;;;;;2.55;2.08;;;;;22.80;101508.00;;;;10447874;28;20209;-77
2022/07/13 03:01:01;;;;;;;2.60;2.00;;;;;22.80;101513.00;;;;10446830;28;20221;-77
2022/07/13 03:06:04;;;;;;;1.65;1.55;;;;;22.90;101517.00;;;;10495554;28;20225;-77
2022/07/13 03:11:06;;;;;;;4.47;1.98;;;;;23.00;101519.00;;;;10429997;28;20198;-77
2022/07/13 03:16:09;;;;;;;1.98;1.77;;;;;23.10;101512.00;;;;10462761;28;20213;-77
2022/07/13 03:21:12;;;;;;;2.22;1.90;;;;;23.10;101524.00;;;;10446208;28;20696;-77
2022/07/13 03:26:15;;;;;;;2.78;1.90;;;;;23.10;101513.00;;;;10462576;28;20198;-77
2022/07/13 03:31:18;;;;;;;1.80;1.70;;;;;23.10;101508.00;;;;10454961;28;20217;-77
2022/07/13 03:36:20;;;;;;;4.35;1.80;;;;;23.10;101505.00;;;;10462555;28;20212;-77
2022/07/13 03:41:22;;;;;;;1.90;1.70;;;;;23.00;101510.00;;;;10445822;28;20669;-77
2022/07/13 03:46:24;;;;;;;1.92;1.83;;;;;23.10;101502.00;;;;10429626;28;20190;-77
2022/07/13 03:51:27;;;;;;;2.65;1.70;;;;;23.20;101503.00;;;;10421132;28;20196;-77
2022/07/13 03:56:30;;;;;;;2.05;1.70;;;;;23.20;101496.00;;;;10445389;28;20259;-77
2022/07/13 04:01:32;;;;;;;2.50;2.08;;;;;23.20;101496.00;;;;10445644;28;20695;-77
2022/07/13 04:06:35;;;;;;;4.25;2.08;;;;;23.20;101494.00;;;;10436985;28;20189;-77
2022/07/13 04:11:38;;;;;;;5.35;2.22;;;;;23.20;101494.00;;;;10476821;28;20208;-77
2022/07/13 04:16:41;;;;;;;5.72;2.35;;;;;23.20;101486.00;;;;10460581;28;20209;-77
2022/07/13 04:21:43;;;;;;;2.78;2.08;;;;;23.10;101484.00;;;;10476878;28;20186;-77
2022/07/13 04:26:47;;;;;;;2.42;1.92;;;;;23.20;101483.00;;;;10443869;28;20284;-76
2022/07/13 04:31:49;;;;;;;2.97;1.98;;;;;23.30;101479.00;;;;10435953;28;20256;-77
2022/07/13 04:36:52;;;;;;;4.75;2.17;;;;;23.40;101490.00;;;;10475780;28;20237;-77
2022/07/13 04:41:54;;;;;;;2.47;1.70;;;;;23.40;101492.00;;;;10433900;28;20209;-76
2022/07/13 04:46:57;;;;;;;3.28;1.70;;;;;23.50;101494.00;;;;10436302;28;20667;-77
2022/07/13 04:52:00;;;;;;;2.08;1.88;;;;;23.60;101492.00;;;;10443899;28;20231;-77
2022/07/13 04:57:03;;;;;;;2.97;1.73;;;;;23.60;101485.00;;;;10460898;28;20221;-76
2022/07/13 05:02:07;;;;;;;1.98;1.73;;;;;23.80;101486.00;;;;10443454;28;20247;-77
2022/07/13 05:07:10;;;;;;;2.65;1.92;;;;;23.90;101471.00;;;;10460620;28;20193;-76
2022/07/13 05:12:12;;;;;;;1.88;1.60;;;;;24.00;101484.00;;;;10476459;28;20223;-77
2022/07/13 05:17:16;;;;;;;4.18;1.67;;;;;24.00;101473.00;;;;10444545;28;20284;-77
2022/07/13 05:22:19;;;;;;;3.78;1.65;;;;;24.10;101475.00;;;;10446713;28;20292;-77
2022/07/13 05:27:22;;;;;;;2.20;2.00;;;;;24.10;101475.00;;;;10450777;28;20602;-76
2022/07/13 05:32:27;;;;;;;2.45;1.98;;;;;24.20;101478.00;;;;10482438;28;20205;-76
2022/07/13 05:37:30;;;;;;;1.80;1.58;;;;;24.40;101487.00;;;;10466605;28;20676;-77
2022/07/13 05:42:32;;;;;;;3.05;1.42;;;;;24.50;101490.00;;;;10450576;28;20196;-77
2022/07/13 05:47:36;;;;;;;3.92;1.73;;;;;24.60;101498.00;;;;10450862;28;20192;-77
2022/07/13 05:52:39;;;;;;;5.25;1.70;;;;;24.60;101504.00;;;;10461534;28;20686;-77
2022/07/13 05:57:44;;;;;;;4.57;1.70;;;;;24.70;101517.00;;;;10450290;28;20214;-77
2022/07/13 06:02:46;;;;;;;4.68;1.90;;;;;24.90;101518.00;;;;10464148;28;20710;-77
2022/07/13 06:07:50;;;;;;;10.82;2.20;;;;;25.20;101525.00;;;;10451193;28;20185;-77
2022/07/13 06:12:52;;;;;;;11.30;2.63;;;;;25.40;101513.00;;;;10451096;28;20194;-77
2022/07/13 06:17:54;;;;;;;9.45;2.30;;;;;25.50;101518.00;;;;10466091;28;20202;-77
2022/07/13 06:23:11;;;;;;;6.93;2.33;;;;;25.60;101513.00;;;;10442978;28;20508;-77
2022/07/13 06:28:13;;;;;;;12.68;2.33;;;;;26.00;101520.00;;;;10473614;28;20213;-77
2022/07/13 06:33:15;;;;;;;13.93;2.58;;;;;26.20;101526.00;;;;10460167;28;20194;-77
2022/07/13 06:38:18;;;;;;;5.43;2.15;;;;;26.30;101528.00;;;;10432128;28;20198;-77
2022/07/13 06:43:20;;;;;;;9.20;2.28;;;;;26.10;101527.00;;;;10419455;28;20200;-77
2022/07/13 06:48:22;;;;;;;5.78;2.00;;;;;26.10;101526.00;;;;10431326;28;20228;-77
2022/07/13 06:53:24;;;;;;;7.43;2.20;;;;;26.30;101527.00;;;;10463511;28;20197;-78
2022/07/13 06:58:26;;;;;;;4.07;2.15;;;;;26.60;101541.00;;;;10411958;28;20318;-77
2022/07/13 07:03:28;;;;;;;8.20;2.75;;;;;27.00;101528.00;;;;10461147;28;20653;-77
2022/07/13 07:08:30;;;;;;;4.80;2.40;;;;;27.30;101525.00;;;;10455074;28;20715;-77
2022/07/13 07:13:32;;;;;;;6.90;2.35;;;;;27.30;101534.00;;;;10457860;28;20581;-78
2022/07/13 07:18:35;;;;;;;6.32;1.95;;;;;27.60;101526.00;;;;10482324;28;20255;-78
2022/07/13 07:23:37;;;;;;;7.93;2.58;;;;;28.10;101530.00;;;;10496616;28;20190;-78
2022/07/13 07:28:40;;;;;;;5.93;3.05;;;;;28.20;101532.00;;;;10429467;28;20208;-78
2022/07/13 07:33:42;;;;;;;5.70;2.97;;;;;28.10;101536.00;;;;10442028;28;20216;-78
2022/07/13 07:38:44;;;;;;;7.25;2.13;;;;;28.90;101533.00;;;;10458597;28;20552;-78
2022/07/13 07:43:46;;;;;;;5.28;2.47;;;;;30.70;101525.00;;;;10457930;28;20243;-78
2022/07/13 07:48:48;;;;;;;7.60;2.53;;;;;30.40;101541.00;;;;10434290;28;25384;-78
2022/07/13 07:53:50;;;;;;;9.02;2.47;;;;;29.50;101538.00;;;;10432852;28;20212;-78
2022/07/13 07:58:52;;;;;;;8.27;3.13;;;;;29.20;101530.00;;;;10427209;28;20221;-78
2022/07/13 08:03:55;;;;;;;8.85;2.85;;;;;28.80;101526.00;;;;10433324;28;20189;-78
2022/07/13 08:08:57;;;;;;;6.63;2.70;;;;;28.90;101530.00;;;;10429746;28;20225;-78
2022/07/13 08:13:59;;;;;;;6.07;3.05;;;;;29.10;101525.00;;;;10442878;28;20283;-79
2022/07/13 08:19:01;;;;;;;7.72;2.70;;;;;29.50;101532.00;;;;10412562;28;20190;-79
2022/07/13 08:24:23;;;;;;;6.65;2.70;;;;;29.70;101523.00;;;;10424374;28;20276;-78
2022/07/13 08:29:25;;;;;;;5.80;2.78;;;;;29.60;101538.00;;;;10435799;28;20978;-79
2022/07/13 08:39:48;;;;;;;9.57;3.45;;;;;31.10;101538.00;;;;10451848;28;20726;-79
2022/07/13 08:44:51;;;;;;;4.93;2.75;;;;;32.00;101544.00;;;;10426170;28;20194;-77
2022/07/13 08:49:56;;;;;;;9.18;2.75;;;;;31.10;101544.00;;;;10425389;28;20193;-77
2022/07/13 08:55:05;;;;;;;10.63;2.78;;;;;30.30;101544.00;;;;10443797;28;20300;-77
2022/07/13 09:00:12;;;;;;;5.57;2.38;;;;;30.00;101542.00;;;;10409251;28;20313;-79
2022/07/13 09:05:14;;;;;;;6.70;2.53;;;;;29.80;101539.00;;;;10454950;28;20635;-79
2022/07/13 09:10:19;;;;;;;4.32;2.45;;;;;30.30;101536.00;;;;10445499;28;20198;-78
2022/07/13 09:15:22;;;;;;;6.20;2.88;;;;;30.30;101545.00;;;;10432117;28;20217;-79
2022/07/13 09:20:24;;;;;;;10.15;2.40;;;;;30.00;101549.00;;;;10410225;28;20182;-77
2022/07/13 09:25:38;;;;;;;10.35;2.70;;;;;30.10;101545.00;;;;10444984;28;20181;-79
2022/07/13 09:30:42;;;;;;;7.25;2.40;;;;;30.30;101544.00;;;;10447425;28;20189;-78
2022/07/13 09:35:49;;;;;;;5.80;2.25;;;;;32.30;101537.00;;;;10469844;28;20202;-78
2022/07/13 09:40:51;;;;;;;4.22;2.35;;;;;32.10;101538.00;;;;10439754;28;20200;-77
2022/07/13 09:46:11;;;;;;;6.57;2.65;;;;;31.40;101546.00;;;;10443462;28;20205;-77
2022/07/13 09:51:13;;;;;;;4.72;2.13;;;;;31.00;101554.00;;;;10429833;28;20194;-77
2022/07/13 09:56:16;;;;;;;5.75;2.22;;;;;32.50;101544.00;;;;10431292;28;20214;-76
2022/07/13 10:01:18;;;;;;;9.13;2.63;;;;;32.60;101557.00;;;;10442338;28;20215;-77
2022/07/13 10:06:21;;;;;;;6.40;2.60;;;;;32.80;101552.00;;;;10441241;28;20247;-79
2022/07/13 10:11:23;;;;;;;6.35;2.58;;;;;34.30;101560.00;;;;10448129;28;20205;-79
2022/07/13 10:16:29;;;;;;;7.70;3.03;;;;;33.20;101554.00;;;;10449682;28;20209;-79
2022/07/13 10:22:00;;;;;;;8.25;2.33;;;;;32.30;101557.00;;;;10463756;28;20189;-78
2022/07/13 10:27:29;;;;;;;7.32;2.83;;;;;32.70;101555.00;;;;10446247;28;20721;-77
2022/07/13 10:32:37;;;;;;;3.92;2.08;;;;;33.60;101550.00;;;;10442422;28;20570;-77
2022/07/13 10:38:02;;;;;;;6.68;2.30;;;;;35.50;101549.00;;;;10489415;28;20221;-77
2022/07/13 10:43:04;;;;;;;7.00;2.42;;;;;36.50;101553.00;;;;10438854;28;20203;-77
2022/07/13 10:48:18;;;;;;;4.13;2.10;;;;;36.40;101545.00;;;;10463484;28;20189;-77
2022/07/13 10:53:42;;;;;;;4.15;2.55;;;;;35.40;101549.00;;;;10426888;28;20198;-78
2022/07/13 10:58:48;;;;;;;6.28;2.13;;;;;35.60;101549.00;;;;10426033;28;20727;-77
2022/07/13 11:03:50;;;;;;;3.97;2.17;;;;;36.40;101531.00;;;;10446951;28;20205;-77
2022/07/13 11:09:11;;;;;;;3.35;2.00;;;;;37.80;101533.00;;;;10425056;28;20186;-78
2022/07/13 11:14:34;;;;;;;4.05;1.90;;;;;38.00;101533.00;;;;10443007;28;20193;-78
2022/07/13 11:19:50;;;;;;;5.03;1.88;;;;;37.80;101533.00;;;;10414155;28;20197;-78
2022/07/13 11:25:23;;;;;;;5.63;2.08;;;;;37.80;101525.00;;;;10427862;28;20266;-77
2022/07/13 11:30:31;;;;;;;4.18;1.75;;;;;38.00;101511.00;;;;10444430;28;20197;-77
2022/07/13 11:35:33;;;;;;;6.07;2.17;;;;;36.90;101532.00;;;;10451551;28;20252;-77
2022/07/13 11:40:35;;;;;;;5.32;2.08;;;;;36.60;101519.00;;;;10417401;28;20277;-77
2022/07/13 11:45:40;;;;;;;5.70;2.10;;;;;36.80;101532.00;;;;10422936;28;20189;-76
2022/07/13 11:50:47;;;;;;;2.92;1.77;;;;;36.20;101531.00;;;;10447219;28;20309;-77
2022/07/13 11:55:50;;;;;;;5.53;1.95;;;;;35.00;101521.00;;;;10424259;28;20233;-77
2022/07/13 12:00:52;;;;;;;5.10;1.88;;;;;34.90;101521.00;;;;10433535;28;20911;-77
2022/07/13 12:06:02;;;;;;;2.22;1.85;;;;;36.50;101514.00;;;;10432561;28;20653;-77
2022/07/13 12:11:06;;;;;;;2.42;1.80;;;;;38.50;101511.00;;;;10428666;28;20236;-77
2022/07/13 12:16:14;;;;;;;5.00;1.90;;;;;39.70;101508.00;;;;10442416;28;20287;-77
2022/07/13 12:21:16;;;;;;;5.18;1.80;;;;;38.10;101506.00;;;;10438841;28;20193;-77
2022/07/13 12:26:18;;;;;;;4.20;1.50;;;;;38.00;101503.00;;;;10445068;28;20194;-77
2022/07/13 12:31:22;;;;;;;3.58;1.60;;;;;36.80;101519.00;;;;10468018;28;20186;-77
2022/07/13 12:36:25;;;;;;;1.88;1.38;;;;;35.30;101517.00;;;;10434698;28;20206;-76
2022/07/13 12:41:40;;;;;;;5.18;1.45;;;;;35.40;101524.00;;;;10462284;28;20193;-77
2022/07/13 12:46:44;;;;;;;1.58;1.48;;;;;34.50;101508.00;;;;10458020;28;20189;-77
2022/07/13 12:51:49;;;;;;;4.80;1.75;;;;;33.90;101506.00;;;;10459976;28;20189;-77
2022/07/13 12:56:52;;;;;;;4.90;1.90;;;;;34.30;101495.00;;;;10425426;28;20217;-77
2022/07/13 13:01:54;;;;;;;3.90;1.80;;;;;37.80;101493.00;;;;10406646;28;20201;-77
2022/07/13 13:06:56;;;;;;;2.92;1.45;;;;;39.70;101496.00;;;;10441852;28;20185;-77
2022/07/13 13:12:00;;;;;;;2.83;1.40;;;;;38.30;101498.00;;;;10432746;28;20197;-77
2022/07/13 13:17:03;;;;;;;1.00;1.00;;;;;38.00;101505.00;;;;10436307;28;20209;-77
2022/07/13 13:22:06;;;;;;;2.80;1.40;;;;;37.00;101508.00;;;;10422972;28;20290;-76
2022/07/13 13:27:08;;;;;;;5.38;2.05;;;;;35.90;101508.00;;;;10414837;28;20183;-77
2022/07/13 13:32:28;;;;;;;1.52;1.40;;;;;35.00;101494.00;;;;10445831;28;20190;-77
2022/07/13 13:37:30;;;;;;;2.10;1.42;;;;;34.50;101487.00;;;;10451729;28;20251;-77
2022/07/13 13:42:32;;;;;;;4.97;1.20;;;;;35.00;101482.00;;;;10448457;28;20240;-77
2022/07/13 13:47:54;;;;;;;4.50;1.50;;;;;35.50;101486.00;;;;10451413;28;20190;-76
2022/07/13 13:53:21;;;;;;;2.60;1.13;;;;;35.80;101473.00;;;;10444148;28;20196;-78
2022/07/13 13:58:45;;;;;;;3.78;1.65;;;;;35.80;101465.00;;;;10433242;28;20988;-77
2022/07/13 14:03:47;;;;;;;2.88;2.00;;;;;35.50;101480.00;;;;10462338;28;20204;-77
2022/07/13 14:08:51;;;;;;;2.92;1.83;;;;;36.70;101479.00;;;;10462734;28;20196;-77
2022/07/13 14:13:53;;;;;;;2.60;1.80;;;;;37.70;101477.00;;;;10454401;28;20194;-77
2022/07/13 14:18:55;;;;;;;5.63;1.85;;;;;37.40;101489.00;;;;10461256;28;20221;-77
2022/07/13 14:23:57;;;;;;;2.25;1.80;;;;;36.50;101481.00;;;;10447258;28;20217;-77
2022/07/13 14:29:19;;;;;;;5.07;1.88;;;;;37.00;101482.00;;;;10440217;28;20266;-77
2022/07/13 14:34:21;;;;;;;3.40;1.85;;;;;35.40;101495.00;;;;10455455;28;20236;-77
2022/07/13 14:39:24;;;;;;;5.97;1.85;;;;;35.10;101494.00;;;;10463045;28;20236;-77
2022/07/13 14:44:27;;;;;;;3.60;2.35;;;;;33.80;101503.00;;;;10449363;28;20205;-77
2022/07/13 14:49:29;;;;;;;3.00;2.25;;;;;34.10;101494.00;;;;10442894;28;20192;-77
2022/07/13 14:54:52;;;;;;;2.47;2.28;;;;;32.50;101478.00;;;;10447157;28;20209;-77
2022/07/13 14:59:54;;;;;;;3.33;2.35;;;;;39.30;101472.00;;;;10419443;28;20221;-77
2022/07/13 15:04:56;;;;;;;6.85;2.60;;;;;37.50;101490.00;;;;10424859;28;20293;-77
2022/07/13 15:09:58;;;;;;;10.32;2.33;;;;;34.10;101505.00;;;;10445514;28;20221;-78
2022/07/13 15:15:07;;;;;;;4.40;2.08;;;;;32.40;101493.00;;;;10437893;28;20568;-78
2022/07/13 15:20:29;;;;;;;6.45;2.20;;;;;31.80;101493.00;;;;10448580;28;20197;-78
2022/07/13 15:25:31;;;;;;;5.40;2.15;;;;;30.80;101492.00;;;;10427728;28;20183;-77
2022/07/13 15:30:35;;;;;;;3.20;2.30;;;;;30.40;101494.00;;;;10458802;28;20660;-77
2022/07/13 15:35:37;;;;;;;3.53;2.22;;;;;33.30;101488.00;;;;10444947;28;20205;-77
2022/07/13 15:45:59;;;;;;;5.07;1.70;;;;;34.00;101502.00;;;;10459901;28;20721;-77
2022/07/13 15:51:01;;;;;;;2.03;1.40;;;;;32.70;101499.00;;;;10445131;28;20202;-77
2022/07/13 15:56:05;;;;;;;3.10;1.30;;;;;31.50;101496.00;;;;10438282;28;20221;-78
2022/07/13 16:01:07;;;;;;;3.30;1.40;;;;;29.90;101499.00;;;;10433490;28;20226;-78
2022/07/13 16:06:09;;;;;;;2.20;1.33;;;;;29.60;101507.00;;;;10443440;28;20228;-77
2022/07/13 16:11:11;;;;;;;3.70;1.30;;;;;29.20;101507.00;;;;10477970;28;20224;-77
2022/07/13 16:16:13;;;;;;;2.35;1.75;;;;;28.90;101506.00;;;;10427396;28;20209;-77
2022/07/13 16:21:16;;;;;;;4.05;1.80;;;;;28.70;101495.00;;;;10440336;28;20189;-77
2022/07/13 16:26:18;;;;;;;2.38;1.52;;;;;28.20;101498.00;;;;10434107;28;20239;-77
2022/07/13 16:31:20;;;;;;;6.55;1.75;;;;;28.20;101498.00;;;;10427604;28;20226;-77
2022/07/13 16:36:22;;;;;;;4.05;1.98;;;;;28.00;101498.00;;;;10456195;28;20203;-77
2022/07/13 16:41:24;;;;;;;3.47;1.48;;;;;27.80;101505.00;;;;10459700;28;20288;-77
2022/07/13 16:46:26;;;;;;;7.75;1.77;;;;;27.60;101500.00;;;;10459190;28;20545;-77
2022/07/13 16:51:28;;;;;;;4.15;1.63;;;;;27.20;101501.00;;;;10444393;28;20216;-77
2022/07/13 16:56:30;;;;;;;2.70;1.60;;;;;26.70;101504.00;;;;10459536;28;20213;-77
2022/07/13 17:01:32;;;;;;;4.43;1.65;;;;;26.40;101509.00;;;;10427862;28;20230;-77
2022/07/13 17:06:34;;;;;;;3.78;1.83;;;;;26.10;101508.00;;;;10439316;28;20200;-77
2022/07/13 17:11:36;;;;;;;5.85;1.90;;;;;26.10;101508.00;;;;10459357;28;20824;-77
2022/07/13 17:16:39;;;;;;;2.97;1.70;;;;;26.20;101513.00;;;;10463752;28;20213;-77
2022/07/13 17:21:42;;;;;;;5.30;1.73;;;;;26.00;101510.00;;;;10484316;28;20194;-77
2022/07/13 17:26:44;;;;;;;4.68;1.70;;;;;25.90;101518.00;;;;10457195;28;20231;-77
2022/07/13 17:31:47;;;;;;;4.95;1.70;;;;;25.80;101513.00;;;;10483911;28;20221;-77
2022/07/13 17:36:49;;;;;;;5.75;2.60;;;;;25.80;101514.00;;;;10449953;28;20209;-77
2022/07/13 17:41:54;;;;;;;5.93;2.25;;;;;25.80;101513.00;;;;10467896;28;20465;-77
2022/07/13 17:46:56;;;;;;;2.33;2.13;;;;;25.70;101520.00;;;;10465134;28;20192;-77
2022/07/13 17:51:58;;;;;;;3.63;2.17;;;;;25.50;101510.00;;;;10483035;28;20197;-77
2022/07/13 17:57:00;;;;;;;4.97;2.72;;;;;25.30;101520.00;;;;10466470;28;20214;-76
2022/07/13 18:02:02;;;;;;;3.50;2.40;;;;;25.30;101525.00;;;;10465781;28;20206;-77
2022/07/13 18:07:04;;;;;;;3.85;2.78;;;;;25.30;101509.00;;;;10425313;28;20194;-77
2022/07/13 18:12:06;;;;;;;5.88;2.88;;;;;25.20;101524.00;;;;10408641;28;20190;-77
2022/07/13 18:17:09;;;;;;;5.07;2.38;;;;;25.00;101527.00;;;;10428418;28;20876;-77
2022/07/13 18:22:11;;;;;;;6.32;3.03;;;;;25.00;101517.00;;;;10457502;28;20201;-77
2022/07/13 18:27:13;;;;;;;6.38;3.00;;;;;24.90;101531.00;;;;10480155;28;20186;-77
2022/07/13 18:32:35;;;;;;;2.75;2.33;;;;;24.70;101523.00;;;;10452784;28;20281;-77
2022/07/13 18:37:37;;;;;;;5.07;2.85;;;;;24.50;101524.00;;;;10439959;28;20542;-76
2022/07/13 18:42:39;;;;;;;4.53;2.92;;;;;24.40;101532.00;;;;10426626;28;20197;-77
2022/07/13 18:47:41;;;;;;;6.60;2.63;;;;;24.50;101541.00;;;;10481033;28;20644;-77
2022/07/13 18:52:43;;;;;;;3.95;2.63;;;;;24.50;101540.00;;;;10447247;28;20620;-77
2022/07/13 18:57:45;;;;;;;3.72;2.50;;;;;24.60;101546.00;;;;10463548;28;20209;-77
2022/07/13 19:02:47;;;;;;;7.13;2.85;;;;;24.70;101550.00;;;;10430212;28;20307;-77
2022/07/13 19:07:49;;;;;;;5.13;2.60;;;;;24.70;101546.00;;;;10463534;28;20181;-76
2022/07/13 19:12:51;;;;;;;4.60;2.83;;;;;24.50;101551.00;;;;10424801;28;20208;-76
2022/07/13 19:17:53;;;;;;;5.82;2.20;;;;;24.40;101551.00;;;;10462689;28;20308;-77
2022/07/13 19:22:55;;;;;;;3.28;2.47;;;;;24.30;101554.00;;;;10429808;28;20688;-76
2022/07/13 19:27:57;;;;;;;2.65;2.10;;;;;24.10;101555.00;;;;10446075;28;20202;-77
2022/07/13 19:33:00;;;;;;;4.00;2.22;;;;;23.90;101557.00;;;;10426890;28;20293;-77
2022/07/13 19:38:02;;;;;;;3.25;2.08;;;;;23.70;101563.00;;;;10477690;28;20296;-76
2022/07/13 19:43:14;;;;;;;4.07;2.10;;;;;23.60;101566.00;;;;10478038;28;20197;-77
2022/07/13 19:48:26;;;;;;;2.30;2.08;;;;;23.40;101578.00;;;;10446301;28;20188;-76
2022/07/13 19:53:35;;;;;;;4.00;2.08;;;;;23.30;101585.00;;;;10446143;28;20200;-79
2022/07/13 19:58:38;;;;;;;3.03;2.25;;;;;23.30;101595.00;;;;10459978;28;20243;-77
2022/07/13 20:03:50;;;;;;;2.60;2.22;;;;;23.20;101586.00;;;;10488243;28;20728;-77
2022/07/13 20:08:54;;;;;;;5.63;2.47;;;;;23.00;101590.00;;;;10447268;28;20189;-77
2022/07/13 20:13:56;;;;;;;4.82;2.50;;;;;22.80;101600.00;;;;10494100;28;20189;-77
2022/07/13 20:18:58;;;;;;;9.25;3.05;;;;;22.70;101600.00;;;;10457683;28;20295;-77
2022/07/13 20:24:00;;;;;;;6.40;3.63;;;;;22.50;101590.00;;;;10476999;28;20301;-77
2022/07/13 20:29:03;;;;;;;6.43;3.10;;;;;22.40;101596.00;;;;10468290;28;20178;-78
2022/07/13 20:34:05;;;;;;;7.20;3.50;;;;;22.20;101614.00;;;;10460689;28;20193;-77
2022/07/13 20:39:07;;;;;;;7.70;3.92;;;;;22.10;101601.00;;;;10461663;28;20213;-77
2022/07/13 20:44:09;;;;;;;4.50;3.60;;;;;22.00;101614.00;;;;10476860;28;20196;-78
2022/07/13 20:49:12;;;;;;;5.32;3.35;;;;;22.00;101612.00;;;;10461652;28;20186;-78
2022/07/13 20:54:14;;;;;;;6.15;3.53;;;;;21.90;101615.00;;;;10462780;28;20200;-78
2022/07/13 20:59:16;;;;;;;10.68;3.70;;;;;21.80;101605.00;;;;10452366;28;20271;-77
2022/07/13 21:04:18;;;;;;;5.38;3.55;;;;;21.60;101613.00;;;;10440597;28;20194;-77
2022/07/13 21:09:21;;;;;;;8.60;3.70;;;;;21.50;101616.00;;;;10468879;28;20186;-78
2022/07/13 21:14:23;;;;;;;7.28;4.13;;;;;21.40;101621.00;;;;10452048;28;20193;-78
2022/07/13 21:19:25;;;;;;;7.72;3.72;;;;;21.40;101613.00;;;;10466963;28;20206;-77
2022/07/13 21:24:27;;;;;;;4.43;3.72;;;;;21.40;101605.00;;;;10434214;28;20194;-77
2022/07/13 21:29:29;;;;;;;5.28;3.72;;;;;21.40;101614.00;;;;10432726;28;20193;-78
2022/07/13 21:34:31;;;;;;;8.65;3.83;;;;;21.30;101619.00;;;;10441434;28;20281;-77
2022/07/13 21:39:33;;;;;;;7.97;3.88;;;;;21.30;101600.00;;;;10461849;28;20632;-78
2022/07/13 21:44:35;;;;;;;5.07;3.88;;;;;21.20;101613.00;;;;10449037;28;20284;-78
2022/07/13 21:49:37;;;;;;;7.07;3.78;;;;;21.20;101598.00;;;;10462012;28;20191;-78
2022/07/13 21:54:39;;;;;;;6.55;4.25;;;;;21.10;101612.00;;;;10482911;28;20717;-77
2022/07/13 21:59:41;;;;;;;5.95;3.85;;;;;21.10;101591.00;;;;10433934;28;20650;-77
2022/07/13 22:04:47;;;;;;;7.63;3.70;;;;;21.00;101592.00;;;;10443815;28;20190;-77
2022/07/13 22:10:27;;;;;;;7.85;4.18;;;;;20.90;101605.00;;;;10482510;28;20190;-77
2022/07/13 22:16:06;;;;;;;8.23;4.60;;;;;20.80;101622.00;;;;10466460;28;20293;-77
2022/07/13 22:21:46;;;;;;;9.07;3.70;;;;;20.70;101631.00;;;;10482064;28;20648;-77
2022/07/13 22:27:25;;;;;;;9.30;3.53;;;;;20.60;101622.00;;;;10482313;28;20208;-77
2022/07/13 22:33:05;;;;;;;10.95;3.65;;;;;20.60;101641.00;;;;10465970;28;20272;-77
2022/07/13 22:39:00;;;;;;;9.98;3.47;;;;;20.50;101647.00;;;;10481304;28;20284;-77
2022/07/13 22:44:40;;;;;;;6.13;3.60;;;;;20.40;101584.00;;;;10465360;28;20185;-77
2022/07/13 22:50:19;;;;;;;11.10;3.95;;;;;20.20;101580.00;;;;10481955;28;20285;-77
2022/07/13 22:55:59;;;;;;;9.73;4.43;;;;;20.00;101644.00;;;;10464532;28;20256;-77
2022/07/13 23:01:38;;;;;;;12.70;4.47;;;;;19.80;101617.00;;;;10445435;28;20222;-77
2022/07/13 23:07:19;;;;;;;6.07;3.45;;;;;19.70;101596.00;;;;10432702;28;20317;-77
2022/07/13 23:12:58;;;;;;;11.25;3.88;;;;;19.70;101613.00;;;;10454097;28;20193;-77
2022/07/13 23:18:38;;;;;;;10.50;3.78;;;;;19.60;101624.00;;;;10423569;28;20569;-77
2022/07/13 23:24:18;;;;;;;11.88;3.95;;;;;19.50;101597.00;;;;10453243;28;20193;-77
2022/07/13 23:29:20;;;;;;;13.27;4.00;;;;;19.40;101599.00;;;;10447709;28;20412;-77
2022/07/13 23:34:22;;;;;;;10.75;3.42;;;;;19.40;101598.00;;;;10447083;28;20251;-77
2022/07/13 23:39:25;;;;;;;12.85;4.28;;;;;19.50;101617.00;;;;10405321;28;20186;-77
2022/07/13 23:44:31;;;;;;;11.10;3.70;;;;;19.40;101601.00;;;;10437988;28;20592;-77
2022/07/13 23:49:33;;;;;;;9.93;3.38;;;;;19.40;101604.00;;;;10438271;28;20261;-78
2022/07/13 23:54:35;;;;;;;12.23;3.55;;;;;19.40;101613.00;;;;10462056;28;20205;-77
2022/07/13 23:59:37;;;;;;;10.13;3.67;;;;;19.20;101595.00;;;;10430103;28;20267;-77
